createdAt,value
2018-07-30T00:00:33.118Z,1029.56
2018-07-30T00:01:33.110Z,1029.53
2018-07-30T00:02:33.108Z,1029.58
2018-07-30T00:03:33.107Z,1029.56
2018-07-30T00:04:33.110Z,1029.57
2018-07-30T00:05:33.103Z,1029.64
2018-07-30T00:06:33.101Z,1029.57
2018-07-30T00:07:33.099Z,1029.61
2018-07-30T00:08:33.098Z,1029.58
2018-07-30T00:09:33.098Z,1029.62
2018-07-30T00:10:33.095Z,1029.61
2018-07-30T00:11:33.094Z,1029.6
2018-07-30T00:12:33.089Z,1029.58
2018-07-30T00:13:33.086Z,1029.6
2018-07-30T00:14:33.084Z,1029.58
2018-07-30T00:15:33.083Z,1029.61
2018-07-30T00:16:33.080Z,1029.57
2018-07-30T00:17:33.078Z,1029.57
2018-07-30T00:18:33.076Z,1029.59
2018-07-30T00:19:33.074Z,1029.58
2018-07-30T00:20:33.072Z,1029.59
2018-07-30T00:21:33.174Z,1029.59
2018-07-30T00:22:33.068Z,1029.61
2018-07-30T00:23:33.066Z,1029.61
2018-07-30T00:24:33.064Z,1029.6
2018-07-30T00:25:33.061Z,1029.64
2018-07-30T00:26:33.060Z,1029.65
2018-07-30T00:27:33.057Z,1029.65
2018-07-30T00:28:33.055Z,1029.64
2018-07-30T00:29:33.053Z,1029.69
2018-07-30T00:30:33.052Z,1029.7
2018-07-30T00:31:33.211Z,1029.72
2018-07-30T00:32:33.048Z,1029.72
2018-07-30T00:33:33.045Z,1029.76
2018-07-30T00:34:33.044Z,1029.73
2018-07-30T00:35:33.044Z,1029.7
2018-07-30T00:36:33.039Z,1029.74
2018-07-30T00:37:33.036Z,1029.73
2018-07-30T00:38:33.033Z,1029.75
2018-07-30T00:39:33.034Z,1029.75
2018-07-30T00:40:33.030Z,1029.73
2018-07-30T00:41:33.028Z,1029.76
2018-07-30T00:42:33.025Z,1029.75
2018-07-30T00:43:33.022Z,1029.77
2018-07-30T00:44:33.032Z,1029.74
2018-07-30T00:45:33.019Z,1029.77
2018-07-30T00:46:33.016Z,1029.77
2018-07-30T00:47:33.014Z,1029.8
2018-07-30T00:48:33.016Z,1029.82
2018-07-30T00:49:33.010Z,1029.78
2018-07-30T00:50:33.008Z,1029.78
2018-07-30T00:51:33.007Z,1029.8
2018-07-30T00:52:33.004Z,1029.79
2018-07-30T00:53:33.005Z,1029.79
2018-07-30T00:54:32.998Z,1029.76
2018-07-30T00:55:32.996Z,1029.71
2018-07-30T00:56:32.995Z,1029.77
2018-07-30T00:57:32.992Z,1029.72
2018-07-30T00:58:32.990Z,1029.7
2018-07-30T00:59:32.990Z,1029.71
2018-07-30T01:00:32.985Z,1029.71
2018-07-30T01:01:32.983Z,1029.72
2018-07-30T01:02:32.983Z,1029.74
2018-07-30T01:03:32.980Z,1029.74
2018-07-30T01:04:32.977Z,1029.74
2018-07-30T01:05:32.974Z,1029.72
2018-07-30T01:06:32.973Z,1029.72
2018-07-30T01:07:33.039Z,1029.69
2018-07-30T01:08:32.968Z,1029.68
2018-07-30T01:09:32.966Z,1029.66
2018-07-30T01:10:32.965Z,1029.63
2018-07-30T01:11:32.964Z,1029.64
2018-07-30T01:12:32.960Z,1029.56
2018-07-30T01:13:32.961Z,1029.54
2018-07-30T01:14:32.955Z,1029.5
2018-07-30T01:15:32.953Z,1029.5
2018-07-30T01:16:32.950Z,1029.49
2018-07-30T01:17:32.949Z,1029.46
2018-07-30T01:18:32.954Z,1029.48
2018-07-30T01:19:32.944Z,1029.45
2018-07-30T01:20:32.941Z,1029.43
2018-07-30T01:21:32.958Z,1029.44
2018-07-30T01:22:32.937Z,1029.45
2018-07-30T01:23:32.935Z,1029.46
2018-07-30T01:24:32.933Z,1029.42
2018-07-30T01:25:32.931Z,1029.44
2018-07-30T01:26:32.928Z,1029.42
2018-07-30T01:27:32.926Z,1029.41
2018-07-30T01:28:32.924Z,1029.41
2018-07-30T01:29:32.921Z,1029.43
2018-07-30T01:30:32.922Z,1029.45
2018-07-30T01:31:32.917Z,1029.43
2018-07-30T01:32:32.916Z,1029.42
2018-07-30T01:33:32.913Z,1029.44
2018-07-30T01:34:32.911Z,1029.41
2018-07-30T01:35:32.909Z,1029.44
2018-07-30T01:36:32.911Z,1029.43
2018-07-30T01:37:32.905Z,1029.38
2018-07-30T01:38:32.905Z,1029.43
2018-07-30T01:39:32.901Z,1029.43
2018-07-30T01:40:32.898Z,1029.43
2018-07-30T01:41:32.896Z,1029.45
2018-07-30T01:42:32.895Z,1029.41
2018-07-30T01:43:32.895Z,1029.41
2018-07-30T01:44:32.892Z,1029.43
2018-07-30T01:45:32.888Z,1029.46
2018-07-30T01:46:32.886Z,1029.44
2018-07-30T01:47:32.884Z,1029.4
2018-07-30T01:48:32.883Z,1029.45
2018-07-30T01:49:32.879Z,1029.42
2018-07-30T01:50:32.878Z,1029.4
2018-07-30T01:51:32.874Z,1029.41
2018-07-30T01:52:32.872Z,1029.4
2018-07-30T01:53:32.871Z,1029.39
2018-07-30T01:54:32.869Z,1029.41
2018-07-30T01:55:32.962Z,1029.38
2018-07-30T01:56:32.864Z,1029.39
2018-07-30T01:57:32.862Z,1029.39
2018-07-30T01:58:32.862Z,1029.39
2018-07-30T01:59:32.858Z,1029.42
2018-07-30T02:00:32.856Z,1029.4
2018-07-30T02:01:32.854Z,1029.34
2018-07-30T02:02:32.852Z,1029.35
2018-07-30T02:03:32.850Z,1029.38
2018-07-30T02:04:32.847Z,1029.37
2018-07-30T02:05:32.845Z,1029.38
2018-07-30T02:06:32.843Z,1029.39
2018-07-30T02:07:32.841Z,1029.38
2018-07-30T02:08:32.840Z,1029.39
2018-07-30T02:09:32.838Z,1029.39
2018-07-30T02:10:32.835Z,1029.36
2018-07-30T02:11:32.833Z,1029.38
2018-07-30T02:12:32.831Z,1029.36
2018-07-30T02:13:32.828Z,1029.4
2018-07-30T02:14:32.826Z,1029.43
2018-07-30T02:15:32.825Z,1029.42
2018-07-30T02:16:32.823Z,1029.43
2018-07-30T02:17:32.820Z,1029.43
2018-07-30T02:18:32.818Z,1029.43
2018-07-30T02:19:32.816Z,1029.45
2018-07-30T02:20:32.815Z,1029.47
2018-07-30T02:21:32.864Z,1029.48
2018-07-30T02:22:32.809Z,1029.45
2018-07-30T02:23:32.809Z,1029.47
2018-07-30T02:24:32.806Z,1029.5
2018-07-30T02:25:32.806Z,1029.48
2018-07-30T02:26:32.802Z,1029.46
2018-07-30T02:27:32.800Z,1029.45
2018-07-30T02:28:32.797Z,1029.49
2018-07-30T02:29:32.795Z,1029.44
2018-07-30T02:30:32.794Z,1029.42
2018-07-30T02:31:32.792Z,1029.42
2018-07-30T02:32:32.790Z,1029.38
2018-07-30T02:33:32.794Z,1029.41
2018-07-30T02:34:32.786Z,1029.4
2018-07-30T02:35:32.784Z,1029.39
2018-07-30T02:36:32.782Z,1029.38
2018-07-30T02:37:32.783Z,1029.41
2018-07-30T02:38:32.780Z,1029.36
2018-07-30T02:39:32.776Z,1029.41
2018-07-30T02:40:32.773Z,1029.37
2018-07-30T02:41:32.773Z,1029.38
2018-07-30T02:42:32.811Z,1029.37
2018-07-30T02:43:32.776Z,1029.36
2018-07-30T02:44:32.765Z,1029.36
2018-07-30T02:45:32.766Z,1029.38
2018-07-30T02:46:32.766Z,1029.35
2018-07-30T02:47:32.760Z,1029.36
2018-07-30T02:48:32.759Z,1029.36
2018-07-30T02:49:32.755Z,1029.35
2018-07-30T02:50:32.753Z,1029.38
2018-07-30T02:51:32.751Z,1029.36
2018-07-30T02:52:32.758Z,1029.4
2018-07-30T02:53:32.747Z,1029.39
2018-07-30T02:54:32.745Z,1029.38
2018-07-30T02:55:32.744Z,1029.41
2018-07-30T02:56:32.741Z,1029.41
2018-07-30T02:57:32.800Z,1029.43
2018-07-30T02:58:32.746Z,1029.43
2018-07-30T02:59:32.735Z,1029.46
2018-07-30T03:00:32.733Z,1029.44
2018-07-30T03:01:32.730Z,1029.46
2018-07-30T03:02:32.729Z,1029.49
2018-07-30T03:03:32.727Z,1029.46
2018-07-30T03:04:32.724Z,1029.46
2018-07-30T03:05:32.726Z,1029.45
2018-07-30T03:06:32.720Z,1029.45
2018-07-30T03:07:32.720Z,1029.42
2018-07-30T03:08:32.716Z,1029.5
2018-07-30T03:09:32.715Z,1029.5
2018-07-30T03:10:32.713Z,1029.5
2018-07-30T03:11:32.710Z,1029.54
2018-07-30T03:12:32.708Z,1029.54
2018-07-30T03:13:32.706Z,1029.51
2018-07-30T03:14:32.705Z,1029.5
2018-07-30T03:15:32.702Z,1029.5
2018-07-30T03:16:32.700Z,1029.47
2018-07-30T03:17:32.699Z,1029.44
2018-07-30T03:18:32.696Z,1029.43
2018-07-30T03:19:32.694Z,1029.42
2018-07-30T03:20:32.692Z,1029.44
2018-07-30T03:21:32.691Z,1029.43
2018-07-30T03:22:32.689Z,1029.39
2018-07-30T03:23:32.690Z,1029.4
2018-07-30T03:24:32.685Z,1029.38
2018-07-30T03:25:32.683Z,1029.39
2018-07-30T03:26:32.680Z,1029.37
2018-07-30T03:27:32.679Z,1029.35
2018-07-30T03:28:32.677Z,1029.33
2018-07-30T03:29:32.677Z,1029.3
2018-07-30T03:30:32.674Z,1029.27
2018-07-30T03:31:32.672Z,1029.3
2018-07-30T03:32:32.669Z,1029.3
2018-07-30T03:33:32.667Z,1029.26
2018-07-30T03:34:32.665Z,1029.24
2018-07-30T03:35:32.663Z,1029.26
2018-07-30T03:36:32.662Z,1029.3
2018-07-30T03:37:32.660Z,1029.25
2018-07-30T03:38:32.658Z,1029.21
2018-07-30T03:39:32.659Z,1029.18
2018-07-30T03:40:32.655Z,1029.15
2018-07-30T03:41:32.652Z,1029.14
2018-07-30T03:42:32.651Z,1029.13
2018-07-30T03:43:32.649Z,1029.1
2018-07-30T03:44:32.649Z,1029.12
2018-07-30T03:45:32.650Z,1029.1
2018-07-30T03:46:32.643Z,1029.08
2018-07-30T03:47:32.642Z,1029.06
2018-07-30T03:48:32.640Z,1029.05
2018-07-30T03:49:32.638Z,1029.07
2018-07-30T03:50:32.663Z,1029.07
2018-07-30T03:51:32.635Z,1029.05
2018-07-30T03:52:32.633Z,1029.02
2018-07-30T03:53:32.634Z,1029.03
2018-07-30T03:54:32.645Z,1029.03
2018-07-30T03:55:32.629Z,1029.03
2018-07-30T03:56:32.626Z,1028.99
2018-07-30T03:57:32.625Z,1028.99
2018-07-30T03:58:32.623Z,1028.94
2018-07-30T03:59:32.621Z,1028.91
2018-07-30T04:00:32.620Z,1028.88
2018-07-30T04:01:32.619Z,1028.86
2018-07-30T04:02:32.618Z,1028.87
2018-07-30T04:03:32.615Z,1028.85
2018-07-30T04:04:32.614Z,1028.83
2018-07-30T04:05:32.612Z,1028.86
2018-07-30T04:06:32.682Z,1028.85
2018-07-30T04:07:32.613Z,1028.81
2018-07-30T04:08:32.609Z,1028.82
2018-07-30T04:09:32.607Z,1028.86
2018-07-30T04:10:32.605Z,1028.82
2018-07-30T04:11:32.604Z,1028.89
2018-07-30T04:12:32.603Z,1028.87
2018-07-30T04:13:32.607Z,1028.89
2018-07-30T04:14:32.600Z,1028.88
2018-07-30T04:15:32.598Z,1028.9
2018-07-30T04:16:32.597Z,1028.91
2018-07-30T04:17:32.597Z,1028.9
2018-07-30T04:18:32.594Z,1028.96
2018-07-30T04:19:32.593Z,1028.94
2018-07-30T04:20:32.592Z,1028.94
2018-07-30T04:21:32.590Z,1028.96
2018-07-30T04:22:32.596Z,1028.96
2018-07-30T04:23:32.588Z,1028.95
2018-07-30T04:24:32.587Z,1028.92
2018-07-30T04:25:32.584Z,1028.93
2018-07-30T04:26:32.583Z,1028.91
2018-07-30T04:27:32.582Z,1028.9
2018-07-30T04:28:32.579Z,1028.87
2018-07-30T04:29:32.578Z,1028.88
2018-07-30T04:30:32.577Z,1028.9
2018-07-30T04:31:32.576Z,1028.91
2018-07-30T04:32:32.575Z,1028.91
2018-07-30T04:33:32.573Z,1028.87
2018-07-30T04:34:32.572Z,1028.88
2018-07-30T04:35:32.577Z,1028.88
2018-07-30T04:36:32.569Z,1028.84
2018-07-30T04:37:32.570Z,1028.85
2018-07-30T04:38:32.566Z,1028.79
2018-07-30T04:39:32.565Z,1028.77
2018-07-30T04:40:32.563Z,1028.74
2018-07-30T04:41:32.562Z,1028.72
2018-07-30T04:42:32.561Z,1028.69
2018-07-30T04:43:32.559Z,1028.65
2018-07-30T04:44:32.558Z,1028.65
2018-07-30T04:45:32.557Z,1028.61
2018-07-30T04:46:32.556Z,1028.58
2018-07-30T04:47:32.554Z,1028.55
2018-07-30T04:48:32.554Z,1028.48
2018-07-30T04:49:32.553Z,1028.49
2018-07-30T04:50:32.550Z,1028.45
2018-07-30T04:51:32.549Z,1028.45
2018-07-30T04:52:32.549Z,1028.39
2018-07-30T04:53:32.552Z,1028.39
2018-07-30T04:54:32.547Z,1028.37
2018-07-30T04:55:32.547Z,1028.39
2018-07-30T04:56:32.545Z,1028.35
2018-07-30T04:57:32.553Z,1028.27
2018-07-30T04:58:32.544Z,1028.29
2018-07-30T04:59:32.542Z,1028.25
2018-07-30T05:00:32.544Z,1028.23
2018-07-30T05:01:32.542Z,1028.19
2018-07-30T05:02:32.541Z,1028.2
2018-07-30T05:03:32.539Z,1028.18
2018-07-30T05:04:32.541Z,1028.13
2018-07-30T05:05:32.539Z,1028.17
2018-07-30T05:06:32.540Z,1028.07
2018-07-30T05:07:32.537Z,1028.02
2018-07-30T05:08:32.537Z,1028
2018-07-30T05:09:32.538Z,1027.99
2018-07-30T05:10:32.536Z,1027.89
2018-07-30T05:11:32.537Z,1027.86
2018-07-30T05:12:32.535Z,1027.82
2018-07-30T05:13:32.536Z,1027.8
2018-07-30T05:14:32.535Z,1027.75
2018-07-30T05:15:32.536Z,1027.71
2018-07-30T05:16:32.535Z,1027.65
2018-07-30T05:17:32.536Z,1027.62
2018-07-30T05:18:32.536Z,1027.57
2018-07-30T05:19:32.566Z,1027.55
2018-07-30T05:20:32.536Z,1027.56
2018-07-30T05:21:32.537Z,1027.45
2018-07-30T05:22:32.538Z,1027.4
2018-07-30T05:23:32.538Z,1027.38
2018-07-30T05:24:32.539Z,1027.37
2018-07-30T05:25:32.604Z,1027.38
2018-07-30T05:26:32.541Z,1027.38
2018-07-30T05:27:32.541Z,1027.36
2018-07-30T05:28:32.542Z,1027.38
2018-07-30T05:29:32.543Z,1027.4
2018-07-30T05:30:32.544Z,1027.4
2018-07-30T05:31:32.615Z,1027.35
2018-07-30T05:32:32.546Z,1027.36
2018-07-30T05:33:32.549Z,1027.43
2018-07-30T05:34:32.548Z,1027.45
2018-07-30T05:35:32.549Z,1027.41
2018-07-30T05:36:32.551Z,1027.38
2018-07-30T05:37:32.552Z,1027.4
2018-07-30T05:38:32.553Z,1027.45
2018-07-30T05:39:32.556Z,1027.45
2018-07-30T05:40:32.557Z,1027.47
2018-07-30T05:41:32.559Z,1027.44
2018-07-30T05:42:32.559Z,1027.44
2018-07-30T05:43:32.561Z,1027.45
2018-07-30T05:44:32.567Z,1027.44
2018-07-30T05:45:32.564Z,1027.45
2018-07-30T05:46:32.566Z,1027.42
2018-07-30T05:47:32.568Z,1027.42
2018-07-30T05:48:32.569Z,1027.46
2018-07-30T05:49:32.570Z,1027.46
2018-07-30T05:50:32.575Z,1027.46
2018-07-30T05:51:32.579Z,1027.48
2018-07-30T05:52:32.574Z,1027.51
2018-07-30T05:53:32.576Z,1027.52
2018-07-30T05:54:32.578Z,1027.52
2018-07-30T05:55:32.580Z,1027.58
2018-07-30T05:56:32.583Z,1027.58
2018-07-30T05:57:32.582Z,1027.58
2018-07-30T05:58:32.588Z,1027.59
2018-07-30T05:59:32.662Z,1027.63
2018-07-30T06:00:32.587Z,1027.64
2018-07-30T06:01:32.589Z,1027.63
2018-07-30T06:02:32.590Z,1027.61
2018-07-30T06:03:32.591Z,1027.57
2018-07-30T06:04:32.594Z,1027.58
2018-07-30T06:05:32.670Z,1027.59
2018-07-30T06:06:32.597Z,1027.6
2018-07-30T06:07:32.598Z,1027.61
2018-07-30T06:08:32.599Z,1027.62
2018-07-30T06:09:32.647Z,1027.58
2018-07-30T06:10:32.603Z,1027.59
2018-07-30T06:11:32.604Z,1027.54
2018-07-30T06:12:32.605Z,1027.53
2018-07-30T06:13:32.607Z,1027.5
2018-07-30T06:14:32.607Z,1027.51
2018-07-30T06:15:32.615Z,1027.51
2018-07-30T06:16:32.613Z,1027.53
2018-07-30T06:17:32.612Z,1027.5
2018-07-30T06:18:32.613Z,1027.5
2018-07-30T06:19:32.615Z,1027.48
2018-07-30T06:20:32.617Z,1027.45
2018-07-30T06:21:32.623Z,1027.46
2018-07-30T06:22:32.622Z,1027.48
2018-07-30T06:23:32.622Z,1027.49
2018-07-30T06:24:32.624Z,1027.5
2018-07-30T06:25:32.624Z,1027.54
2018-07-30T06:26:32.652Z,1027.57
2018-07-30T06:27:32.628Z,1027.58
2018-07-30T06:28:32.630Z,1027.57
2018-07-30T06:29:32.632Z,1027.6
2018-07-30T06:30:32.659Z,1027.58
2018-07-30T06:31:32.636Z,1027.59
2018-07-30T06:32:32.638Z,1027.59
2018-07-30T06:33:32.638Z,1027.56
2018-07-30T06:34:32.640Z,1027.52
2018-07-30T06:35:32.643Z,1027.54
2018-07-30T06:36:32.645Z,1027.47
2018-07-30T06:37:32.646Z,1027.42
2018-07-30T06:38:32.686Z,1027.42
2018-07-30T06:39:32.651Z,1027.39
2018-07-30T06:40:32.651Z,1027.36
2018-07-30T06:41:32.654Z,1027.31
2018-07-30T06:42:32.656Z,1027.27
2018-07-30T06:43:32.661Z,1027.24
2018-07-30T06:44:32.662Z,1027.23
2018-07-30T06:45:32.662Z,1027.24
2018-07-30T06:46:32.664Z,1027.24
2018-07-30T06:47:32.666Z,1027.25
2018-07-30T06:48:32.674Z,1027.28
2018-07-30T06:49:32.676Z,1027.29
2018-07-30T06:50:32.674Z,1027.28
2018-07-30T06:51:32.681Z,1027.34
2018-07-30T06:52:32.678Z,1027.36
2018-07-30T06:53:32.681Z,1027.37
2018-07-30T06:54:32.685Z,1027.37
2018-07-30T06:55:32.686Z,1027.36
2018-07-30T06:56:32.689Z,1027.33
2018-07-30T06:57:32.691Z,1027.35
2018-07-30T06:58:32.693Z,1027.41
2018-07-30T06:59:32.696Z,1027.41
2018-07-30T07:00:32.699Z,1027.39
2018-07-30T07:01:32.702Z,1027.42
2018-07-30T07:02:32.704Z,1027.42
2018-07-30T07:03:32.708Z,1027.4
2018-07-30T07:04:32.711Z,1027.41
2018-07-30T07:05:32.714Z,1027.34
2018-07-30T07:06:32.716Z,1027.37
2018-07-30T07:07:32.719Z,1027.39
2018-07-30T07:08:32.722Z,1027.36
2018-07-30T07:09:32.724Z,1027.4
2018-07-30T07:10:32.743Z,1027.38
2018-07-30T07:11:32.730Z,1027.36
2018-07-30T07:12:32.735Z,1027.39
2018-07-30T07:13:32.737Z,1027.39
2018-07-30T07:14:32.740Z,1027.38
2018-07-30T07:15:32.743Z,1027.42
2018-07-30T07:16:32.756Z,1027.47
2018-07-30T07:17:32.750Z,1027.45
2018-07-30T07:18:32.753Z,1027.44
2018-07-30T07:19:32.756Z,1027.44
2018-07-30T07:20:32.773Z,1027.42
2018-07-30T07:21:32.843Z,1027.46
2018-07-30T07:22:32.765Z,1027.4
2018-07-30T07:23:32.778Z,1027.42
2018-07-30T07:24:32.770Z,1027.4
2018-07-30T07:25:32.774Z,1027.35
2018-07-30T07:26:32.777Z,1027.31
2018-07-30T07:27:32.778Z,1027.27
2018-07-30T07:28:32.782Z,1027.26
2018-07-30T07:29:32.786Z,1027.19
2018-07-30T07:30:32.791Z,1027.14
2018-07-30T07:31:32.791Z,1027.11
2018-07-30T07:32:32.798Z,1027.1
2018-07-30T07:33:32.798Z,1027.04
2018-07-30T07:34:45.535Z,1026.97
2018-07-30T07:35:32.805Z,1026.96
2018-07-30T07:36:32.810Z,1027
2018-07-30T07:37:32.812Z,1026.98
2018-07-30T07:38:32.815Z,1026.99
2018-07-30T07:39:32.818Z,1026.97
2018-07-30T07:40:32.824Z,1026.98
2018-07-30T07:41:32.831Z,1026.88
2018-07-30T07:42:32.830Z,1026.77
2018-07-30T07:43:32.834Z,1026.67
2018-07-30T07:44:32.839Z,1026.59
2018-07-30T07:45:32.842Z,1026.6
2018-07-30T07:46:32.847Z,1026.5
2018-07-30T07:47:32.856Z,1026.42
2018-07-30T07:48:32.861Z,1026.39
2018-07-30T07:49:32.858Z,1026.33
2018-07-30T07:50:33.010Z,1026.3
2018-07-30T07:51:32.893Z,1026.15
2018-07-30T07:52:32.872Z,1025.98
2018-07-30T07:53:32.885Z,1025.83
2018-07-30T07:54:32.881Z,1025.65
2018-07-30T07:55:32.899Z,1025.71
2018-07-30T07:56:32.891Z,1025.72
2018-07-30T07:57:32.898Z,1025.74
2018-07-30T07:58:32.905Z,1025.8
2018-07-30T07:59:32.907Z,1025.85
2018-07-30T08:00:32.911Z,1025.96
2018-07-30T08:01:32.969Z,1026.05
2018-07-30T08:02:32.924Z,1026.13
2018-07-30T08:03:32.930Z,1026.15
2018-07-30T08:04:32.938Z,1026.12
2018-07-30T08:05:32.952Z,1026.19
2018-07-30T08:06:32.949Z,1026.23
2018-07-30T08:07:32.973Z,1026.2
2018-07-30T08:08:32.959Z,1026.26
2018-07-30T08:09:33.016Z,1026.27
2018-07-30T08:10:32.970Z,1026.24
2018-07-30T08:11:32.975Z,1026.2
2018-07-30T08:12:45.714Z,1026.1
2018-07-30T08:13:32.988Z,1025.97
2018-07-30T08:14:32.995Z,1025.79
2018-07-30T08:15:33.001Z,1024.87
2018-07-30T08:16:33.006Z,1024.55
2018-07-30T08:18:33.019Z,1024.96
2018-07-30T08:19:45.763Z,1025.27
2018-07-30T08:20:39.295Z,1025.44
2018-07-30T08:21:33.039Z,1025.6
2018-07-30T08:22:33.047Z,1025.17
2018-07-30T08:23:33.053Z,1024.39
2018-07-30T08:24:33.066Z,1023.95
2018-07-30T08:26:33.075Z,1023.31
2018-07-30T08:27:33.083Z,1023.18
2018-07-30T08:28:33.092Z,1023.04
2018-07-30T08:29:33.102Z,1022.9
2018-07-30T08:30:33.109Z,1022.74
2018-07-30T08:31:33.119Z,1022.65
2018-07-30T08:32:33.133Z,1022.72
2018-07-30T08:33:33.140Z,1022.56
2018-07-30T08:34:33.150Z,1022.43
2018-07-30T08:35:33.161Z,1022.25
2018-07-30T08:36:33.178Z,1022.15
2018-07-30T08:37:33.183Z,1022.08
2018-07-30T08:38:33.196Z,1022.03
2018-07-30T08:39:33.211Z,1021.99
2018-07-30T08:40:33.220Z,1021.94
2018-07-30T08:41:33.232Z,1021.95
2018-07-30T08:42:33.249Z,1021.95
2018-07-30T08:43:33.263Z,1021.94
2018-07-30T08:44:33.270Z,1021.93
2018-07-30T08:45:33.284Z,1021.93
2018-07-30T08:46:33.298Z,1021.99
2018-07-30T08:47:33.313Z,1022.05
2018-07-30T08:48:33.325Z,1022.08
2018-07-30T08:49:33.342Z,1022.33
2018-07-30T08:50:33.355Z,1022.75
2018-07-30T08:51:33.369Z,1023.37
2018-07-30T08:52:33.384Z,1024.02
2018-07-30T08:53:33.404Z,1024.55
2018-07-30T08:54:33.411Z,1025.05
2018-07-30T08:55:33.422Z,1025.39
2018-07-30T08:56:33.437Z,1025.78
2018-07-30T08:57:33.450Z,1026.06
2018-07-30T08:58:33.463Z,1026.3
2018-07-30T08:59:33.473Z,1026.52
2018-07-30T09:00:33.486Z,1026.66
2018-07-30T09:01:33.498Z,1026.88
2018-07-30T09:02:33.508Z,1027
2018-07-30T09:03:33.518Z,1027.09
2018-07-30T09:04:33.531Z,1027.17
2018-07-30T09:05:33.541Z,1027.31
2018-07-30T09:06:34.155Z,1027.5
2018-07-30T09:07:33.558Z,1027.54
2018-07-30T09:08:33.568Z,1027.66
2018-07-30T09:09:33.578Z,1027.74
2018-07-30T09:10:33.594Z,1027.81
2018-07-30T09:11:33.598Z,1027.97
2018-07-30T09:12:33.610Z,1028.02
2018-07-30T09:13:33.611Z,1028.02
2018-07-30T09:14:33.619Z,1028.05
2018-07-30T09:15:33.627Z,1028.09
2018-07-30T09:16:33.635Z,1028.16
2018-07-30T09:17:33.642Z,1028.18
2018-07-30T09:18:33.649Z,1028.22
2018-07-30T09:19:33.656Z,1028.21
2018-07-30T09:20:33.664Z,1028.16
2018-07-30T09:21:33.670Z,1028.16
2018-07-30T09:22:33.676Z,1028.12
2018-07-30T09:23:33.683Z,1028.15
2018-07-30T09:24:33.689Z,1028.19
2018-07-30T09:25:33.696Z,1028.19
2018-07-30T09:26:33.706Z,1028.22
2018-07-30T09:27:33.708Z,1028.31
2018-07-30T09:28:33.713Z,1028.25
2018-07-30T09:29:33.720Z,1028.26
2018-07-30T09:30:33.726Z,1028.24
2018-07-30T09:31:33.732Z,1028.31
2018-07-30T09:32:33.788Z,1028.31
2018-07-30T09:33:33.743Z,1028.31
2018-07-30T09:34:33.750Z,1028.31
2018-07-30T09:35:33.754Z,1028.3
2018-07-30T09:36:33.760Z,1028.26
2018-07-30T09:37:33.770Z,1028.22
2018-07-30T09:38:33.771Z,1028.25
2018-07-30T09:39:33.884Z,1028.22
2018-07-30T09:40:33.782Z,1028.2
2018-07-30T09:41:33.787Z,1028.22
2018-07-30T09:42:33.792Z,1028.2
2018-07-30T09:43:33.797Z,1028.2
2018-07-30T09:44:33.827Z,1028.16
2018-07-30T09:45:33.808Z,1028.17
2018-07-30T09:46:33.813Z,1028.15
2018-07-30T09:47:33.818Z,1028.14
2018-07-30T09:48:33.824Z,1028.16
2018-07-30T09:49:33.833Z,1028.14
2018-07-30T09:50:33.890Z,1028.14
2018-07-30T09:51:33.839Z,1028.15
2018-07-30T09:52:33.844Z,1028.13
2018-07-30T09:53:33.850Z,1028.14
2018-07-30T09:54:33.868Z,1028.09
2018-07-30T09:55:33.862Z,1028.09
2018-07-30T09:56:33.866Z,1028.05
2018-07-30T09:57:33.873Z,1028.05
2018-07-30T09:58:33.875Z,1028.02
2018-07-30T09:59:33.881Z,1028.05
2018-07-30T10:00:33.886Z,1027.93
2018-07-30T10:01:33.891Z,1028.08
2018-07-30T10:02:33.896Z,1028.11
2018-07-30T10:03:33.908Z,1028.16
2018-07-30T10:04:33.907Z,1028.09
2018-07-30T10:05:33.929Z,1028.2
2018-07-30T10:06:33.918Z,1028.2
2018-07-30T10:07:33.940Z,1028.23
2018-07-30T10:08:33.928Z,1028.24
2018-07-30T10:09:33.933Z,1028.22
2018-07-30T10:10:33.938Z,1028.2
2018-07-30T10:11:33.982Z,1028.18
2018-07-30T10:12:33.949Z,1028.12
2018-07-30T10:13:33.953Z,1028.1
2018-07-30T10:14:33.961Z,1028.07
2018-07-30T10:15:33.964Z,1028.05
2018-07-30T10:16:33.969Z,1028.02
2018-07-30T10:17:34.027Z,1028.02
2018-07-30T10:18:33.984Z,1028.01
2018-07-30T10:19:33.986Z,1028.04
2018-07-30T10:20:33.988Z,1027.99
2018-07-30T10:21:33.994Z,1027.99
2018-07-30T10:22:33.999Z,1028.07
2018-07-30T10:23:34.051Z,1028.05
2018-07-30T10:24:34.010Z,1028.03
2018-07-30T10:25:34.014Z,1028.02
2018-07-30T10:26:34.020Z,1027.96
2018-07-30T10:27:34.025Z,1027.95
2018-07-30T10:28:34.030Z,1027.94
2018-07-30T10:29:34.036Z,1027.93
2018-07-30T10:30:34.051Z,1027.92
2018-07-30T10:31:34.046Z,1027.86
2018-07-30T10:32:34.050Z,1027.9
2018-07-30T10:33:34.056Z,1027.91
2018-07-30T10:34:34.131Z,1027.91
2018-07-30T10:35:34.065Z,1027.93
2018-07-30T10:36:34.072Z,1027.86
2018-07-30T10:37:34.075Z,1027.82
2018-07-30T10:38:34.097Z,1027.91
2018-07-30T10:39:34.085Z,1027.86
2018-07-30T10:40:34.091Z,1027.84
2018-07-30T10:41:34.097Z,1027.82
2018-07-30T10:42:34.101Z,1027.76
2018-07-30T10:43:34.106Z,1027.73
2018-07-30T10:44:34.111Z,1027.72
2018-07-30T10:45:34.116Z,1027.68
2018-07-30T10:46:34.121Z,1027.66
2018-07-30T10:47:34.134Z,1027.61
2018-07-30T10:48:34.131Z,1027.57
2018-07-30T10:49:34.137Z,1027.62
2018-07-30T10:50:34.141Z,1027.64
2018-07-30T10:51:34.147Z,1027.64
2018-07-30T10:52:34.152Z,1027.6
2018-07-30T10:53:34.157Z,1027.66
2018-07-30T10:54:34.165Z,1027.62
2018-07-30T10:55:34.170Z,1027.65
2018-07-30T10:56:34.206Z,1027.62
2018-07-30T10:57:34.178Z,1027.59
2018-07-30T10:58:34.183Z,1027.63
2018-07-30T10:59:34.189Z,1027.59
2018-07-30T11:00:34.194Z,1027.59
2018-07-30T11:01:34.199Z,1027.56
2018-07-30T11:02:34.205Z,1027.53
2018-07-30T11:03:34.209Z,1027.49
2018-07-30T11:04:34.215Z,1027.49
2018-07-30T11:05:34.220Z,1027.46
2018-07-30T11:06:34.226Z,1027.46
2018-07-30T11:07:34.231Z,1027.4
2018-07-30T11:08:34.236Z,1027.42
2018-07-30T11:09:34.288Z,1027.49
2018-07-30T11:10:34.253Z,1027.47
2018-07-30T11:11:34.253Z,1027.38
2018-07-30T11:12:34.262Z,1027.42
2018-07-30T11:13:34.281Z,1027.37
2018-07-30T11:14:34.269Z,1027.38
2018-07-30T11:15:34.275Z,1027.31
2018-07-30T11:16:34.284Z,1027.32
2018-07-30T11:17:34.286Z,1027.32
2018-07-30T11:18:34.290Z,1027.31
2018-07-30T11:19:34.296Z,1027.33
2018-07-30T11:20:34.302Z,1027.26
2018-07-30T11:21:34.344Z,1027.25
2018-07-30T11:22:34.312Z,1027.25
2018-07-30T11:23:34.323Z,1027.28
2018-07-30T11:24:34.324Z,1027.25
2018-07-30T11:25:34.329Z,1027.26
2018-07-30T11:26:34.334Z,1027.25
2018-07-30T11:27:34.340Z,1027.25
2018-07-30T11:28:34.355Z,1027.24
2018-07-30T11:29:34.351Z,1027.21
2018-07-30T11:30:34.359Z,1027.2
2018-07-30T11:31:34.362Z,1027.18
2018-07-30T11:32:34.368Z,1027.13
2018-07-30T11:33:34.404Z,1027.07
2018-07-30T11:34:34.395Z,1027.06
2018-07-30T11:35:34.386Z,1027
2018-07-30T11:36:34.398Z,1027.05
2018-07-30T11:37:34.409Z,1027.01
2018-07-30T11:38:34.403Z,1027.03
2018-07-30T11:39:34.419Z,1027.01
2018-07-30T11:40:34.413Z,1027.02
2018-07-30T11:41:34.420Z,1027.03
2018-07-30T11:42:34.429Z,1027.04
2018-07-30T11:43:34.442Z,1027.07
2018-07-30T11:44:34.436Z,1027.08
2018-07-30T11:45:34.443Z,1027.05
2018-07-30T11:46:34.449Z,1027.02
2018-07-30T11:47:34.454Z,1026.98
2018-07-30T11:48:34.527Z,1026.95
2018-07-30T11:49:34.466Z,1026.97
2018-07-30T11:50:34.472Z,1026.94
2018-07-30T11:51:34.478Z,1026.91
2018-07-30T11:52:34.484Z,1026.89
2018-07-30T11:53:34.501Z,1026.84
2018-07-30T11:54:34.534Z,1026.82
2018-07-30T11:55:34.501Z,1026.84
2018-07-30T11:56:34.507Z,1026.75
2018-07-30T11:57:34.516Z,1026.78
2018-07-30T11:58:34.518Z,1026.72
2018-07-30T11:59:34.524Z,1026.73
2018-07-30T12:00:34.535Z,1026.73
2018-07-30T12:01:34.537Z,1026.76
2018-07-30T12:02:34.543Z,1026.73
2018-07-30T12:03:34.549Z,1026.72
2018-07-30T12:04:34.556Z,1026.72
2018-07-30T12:05:34.561Z,1026.71
2018-07-30T12:06:34.567Z,1026.7
2018-07-30T12:07:34.574Z,1026.7
2018-07-30T12:08:34.579Z,1026.68
2018-07-30T12:09:34.591Z,1026.66
2018-07-30T12:10:34.597Z,1026.66